createdAt,value
2022-10-13T00:00:42.777Z,99989.97
2022-10-13T00:03:10.654Z,99993.66
2022-10-13T00:05:45.154Z,99991.19
2022-10-13T00:08:12.868Z,99985.16
2022-10-13T00:10:45.909Z,99988.00
2022-10-13T00:13:13.063Z,99990.81
2022-10-13T00:15:41.261Z,99986.59
2022-10-13T00:18:08.405Z,99991.22
2022-10-13T00:20:35.580Z,99992.28
2022-10-13T00:23:02.564Z,99990.59
2022-10-13T00:25:29.637Z,99896.56
2022-10-13T00:27:56.634Z,99994.19
2022-10-13T00:30:35.806Z,99996.94
2022-10-13T00:33:02.817Z,99997.91
2022-10-13T00:35:29.733Z,100000.53
2022-10-13T00:37:56.762Z,99997.94
2022-10-13T00:40:27.181Z,99996.28
2022-10-13T00:42:54.272Z,99993.59
2022-10-13T00:45:21.159Z,100000.72
2022-10-13T00:47:50.248Z,99998.13
2022-10-13T00:50:23.674Z,100001.78
2022-10-13T00:52:56.352Z,99997.47
2022-10-13T00:55:26.392Z,100004.47
2022-10-13T00:57:55.310Z,100010.66
2022-10-13T01:00:30.787Z,100008.00
2022-10-13T01:02:58.099Z,100014.97
2022-10-13T01:05:25.394Z,100018.44
2022-10-13T01:07:56.960Z,100009.81
2022-10-13T01:10:35.178Z,100014.44
2022-10-13T01:13:34.675Z,100019.09
2022-10-13T01:16:13.925Z,100021.28
2022-10-13T01:18:52.753Z,100017.25
2022-10-13T01:21:39.068Z,100020.16
2022-10-13T01:24:06.023Z,100014.25
2022-10-13T01:26:59.201Z,100021.38
2022-10-13T01:29:45.191Z,100017.19
2022-10-13T01:32:16.721Z,100026.06
2022-10-13T01:34:45.056Z,100022.59
2022-10-13T01:37:19.371Z,100025.25
2022-10-13T01:40:04.854Z,100026.22
2022-10-13T01:42:35.787Z,100018.25
2022-10-13T01:45:08.054Z,100022.50
2022-10-13T01:47:35.581Z,100030.31
2022-10-13T01:50:03.014Z,100028.44
2022-10-13T01:52:33.561Z,100023.00
2022-10-13T01:55:05.032Z,100030.72
2022-10-13T01:57:33.553Z,100024.59
2022-10-13T02:00:02.366Z,100024.50
2022-10-13T02:02:54.994Z,100027.94
2022-10-13T02:05:38.327Z,100033.03
2022-10-13T02:08:10.775Z,100030.22
2022-10-13T02:10:46.782Z,100037.06
2022-10-13T02:13:15.252Z,100037.06
2022-10-13T02:15:47.936Z,100037.09
2022-10-13T02:18:16.036Z,100032.84
2022-10-13T02:20:45.030Z,100044.31
2022-10-13T02:23:15.334Z,100035.69
2022-10-13T02:25:42.631Z,100038.38
2022-10-13T02:28:10.403Z,100042.75
2022-10-13T02:30:43.954Z,100040.88
2022-10-13T02:33:11.503Z,100039.81
2022-10-13T02:35:39.102Z,100039.81
2022-10-13T02:38:06.338Z,100047.53
2022-10-13T02:40:33.385Z,100037.72
2022-10-13T02:43:00.328Z,100039.44
2022-10-13T02:45:27.272Z,100041.13
2022-10-13T02:47:55.549Z,100041.03
2022-10-13T02:50:22.586Z,100040.06
2022-10-13T02:52:50.794Z,100036.50
2022-10-13T02:55:17.913Z,100039.97
2022-10-13T02:57:45.937Z,100042.69
2022-10-13T03:00:13.915Z,100049.66
2022-10-13T03:02:41.004Z,100042.63
2022-10-13T03:05:08.200Z,100054.81
2022-10-13T03:07:35.168Z,100047.69
2022-10-13T03:10:02.394Z,100055.56
2022-10-13T03:12:30.128Z,100046.84
2022-10-13T03:14:57.578Z,100050.59
2022-10-13T03:17:24.562Z,100043.84
2022-10-13T03:19:51.517Z,100057.22
2022-10-13T03:22:19.576Z,100055.50
2022-10-13T03:24:46.841Z,100057.41
2022-10-13T03:27:14.589Z,100056.78
2022-10-13T03:29:41.616Z,100066.47
2022-10-13T03:32:09.133Z,100056.16
2022-10-13T03:34:36.125Z,100057.91
2022-10-13T03:37:03.128Z,100056.16
2022-10-13T03:39:34.025Z,100064.06
2022-10-13T03:42:01.132Z,100057.03
2022-10-13T03:44:28.293Z,100069.31
2022-10-13T03:46:55.292Z,100064.84
2022-10-13T03:49:22.212Z,100062.09
2022-10-13T03:51:49.255Z,100076.78
2022-10-13T03:54:16.293Z,100070.50
2022-10-13T03:56:45.393Z,100085.47
2022-10-13T03:59:13.112Z,100070.66
2022-10-13T04:01:40.317Z,100075.94
2022-10-13T04:04:09.320Z,100071.50
2022-10-13T04:06:38.034Z,100075.72
2022-10-13T04:09:05.540Z,100079.13
2022-10-13T04:11:32.533Z,100077.22
2022-10-13T04:13:59.642Z,100080.53
2022-10-13T04:16:27.923Z,100077.75
2022-10-13T04:19:02.081Z,100084.47
2022-10-13T04:21:30.029Z,100082.47
2022-10-13T04:23:58.549Z,100095.44
2022-10-13T04:26:27.008Z,100085.72
2022-10-13T04:28:54.689Z,100087.34
2022-10-13T04:31:22.379Z,100093.63
2022-10-13T04:33:50.356Z,100090.06
2022-10-13T04:36:18.364Z,100095.22
2022-10-13T04:38:46.949Z,100105.88
2022-10-13T04:41:14.956Z,100105.81
2022-10-13T04:43:42.437Z,100103.97
2022-10-13T04:46:12.811Z,100107.44
2022-10-13T04:48:39.958Z,100108.19
2022-10-13T04:51:11.641Z,100100.25
2022-10-13T04:53:38.956Z,100111.44
2022-10-13T04:56:10.605Z,100117.41
2022-10-13T04:58:38.481Z,100112.91
2022-10-13T05:01:07.066Z,100115.41
2022-10-13T05:03:34.673Z,100109.22
2022-10-13T05:06:01.862Z,100106.44
2022-10-13T05:08:28.978Z,100118.63
2022-10-13T05:10:55.902Z,100113.25
2022-10-13T05:13:23.006Z,100124.53
2022-10-13T05:15:50.513Z,100126.97
2022-10-13T05:18:22.000Z,100126.00
2022-10-13T05:20:49.277Z,100136.59
2022-10-13T05:23:16.714Z,100134.84
2022-10-13T05:25:43.892Z,100123.34
2022-10-13T05:28:13.863Z,100125.72
2022-10-13T05:30:40.952Z,100128.09
2022-10-13T05:33:07.920Z,100130.41
2022-10-13T05:35:35.138Z,100129.44
2022-10-13T05:38:02.091Z,100123.09
2022-10-13T05:40:29.465Z,100123.69
2022-10-13T05:43:00.713Z,100123.59
2022-10-13T05:45:29.772Z,100120.16
2022-10-13T05:47:56.786Z,100106.28
2022-10-13T05:50:23.860Z,100130.38
2022-10-13T05:52:51.488Z,100135.31
2022-10-13T05:55:19.321Z,100127.03
2022-10-13T05:57:50.013Z,100125.09
2022-10-13T06:00:19.136Z,100124.88
2022-10-13T06:02:54.300Z,100129.91
2022-10-13T06:05:23.538Z,100125.22
2022-10-13T06:07:55.038Z,100128.19
2022-10-13T06:10:23.846Z,100123.34
2022-10-13T06:12:51.275Z,100125.72
2022-10-13T06:15:18.463Z,100138.28
2022-10-13T06:17:45.589Z,100144.41
2022-10-13T06:20:12.933Z,100149.75
2022-10-13T06:22:40.443Z,100157.88
2022-10-13T06:25:07.874Z,100138.16
2022-10-13T06:27:34.972Z,100144.88
2022-10-13T06:30:02.230Z,100145.78
2022-10-13T06:32:30.531Z,100150.31
2022-10-13T06:34:57.504Z,100158.06
2022-10-13T06:37:27.283Z,100151.59
2022-10-13T06:39:54.937Z,100151.34
2022-10-13T06:42:22.457Z,100155.72
2022-10-13T06:45:08.216Z,100157.81
2022-10-13T06:47:35.448Z,100162.03
2022-10-13T06:50:02.420Z,100162.53
2022-10-13T06:52:29.851Z,100174.25
2022-10-13T06:54:56.837Z,100163.81
2022-10-13T06:57:23.803Z,100161.16
2022-10-13T06:59:53.016Z,100173.25
2022-10-13T07:02:20.437Z,100175.31
2022-10-13T07:04:47.768Z,100177.53
2022-10-13T07:07:15.055Z,100173.31
2022-10-13T07:09:42.908Z,100177.75
2022-10-13T07:12:10.544Z,100172.50
2022-10-13T07:14:39.298Z,100177.06
2022-10-13T07:17:10.618Z,100178.59
2022-10-13T07:19:37.691Z,100176.09
2022-10-13T07:22:04.672Z,100170.97
2022-10-13T07:24:31.987Z,100177.38
2022-10-13T07:27:00.914Z,100172.09
2022-10-13T07:29:30.955Z,100177.84
2022-10-13T07:31:58.026Z,100180.13
2022-10-13T07:34:25.055Z,100181.31
2022-10-13T07:36:52.033Z,100168.59
2022-10-13T07:39:19.022Z,100168.34
2022-10-13T07:41:50.752Z,100171.03
2022-10-13T07:44:18.264Z,100163.44
2022-10-13T07:46:45.281Z,100158.59
2022-10-13T07:49:15.322Z,100162.69
2022-10-13T07:51:45.055Z,100166.28
2022-10-13T07:54:12.237Z,100173.03
2022-10-13T07:56:39.783Z,100170.34
2022-10-13T07:59:07.740Z,100171.53
2022-10-13T08:01:35.174Z,100183.91
2022-10-13T08:04:02.550Z,100182.16
2022-10-13T08:06:29.604Z,100181.44
2022-10-13T08:08:58.418Z,100182.00
2022-10-13T08:11:25.909Z,100187.31
2022-10-13T08:13:53.425Z,100178.84
2022-10-13T08:16:23.626Z,100185.31
2022-10-13T08:18:50.823Z,100181.91
2022-10-13T08:24:06.652Z,100198.16
2022-10-13T08:26:33.949Z,100193.41
2022-10-13T08:29:20.832Z,100203.72
2022-10-13T08:34:20.114Z,100206.56
2022-10-13T08:36:47.478Z,100203.50
2022-10-13T08:39:14.681Z,100208.53
2022-10-13T08:41:46.149Z,100203.00
2022-10-13T08:47:10.650Z,100205.03
2022-10-13T08:49:40.321Z,100206.66
2022-10-13T08:52:13.993Z,100205.22
2022-10-13T08:54:40.936Z,100202.75
2022-10-13T08:57:09.421Z,100209.94
2022-10-13T08:59:36.665Z,100218.56
2022-10-13T09:02:10.624Z,100207.06
2022-10-13T09:04:41.618Z,100212.69
2022-10-13T09:07:11.490Z,100208.28
2022-10-13T09:09:38.948Z,100208.09
2022-10-13T09:12:06.556Z,100215.41
2022-10-13T09:14:35.670Z,100204.84
2022-10-13T09:17:16.824Z,100207.34
2022-10-13T09:19:58.130Z,100208.72
2022-10-13T09:22:26.792Z,100206.19
2022-10-13T09:25:03.359Z,100207.84
2022-10-13T09:27:41.174Z,100197.78
2022-10-13T09:30:27.061Z,100200.38
2022-10-13T09:33:13.834Z,100198.72
2022-10-13T09:35:42.411Z,100202.09
2022-10-13T09:38:20.503Z,100196.56
2022-10-13T09:41:01.930Z,100195.41
2022-10-13T09:43:48.123Z,100194.44
2022-10-13T09:46:32.200Z,100200.88
2022-10-13T09:49:02.072Z,100195.53
2022-10-13T09:51:43.877Z,100199.94
2022-10-13T09:54:28.595Z,100196.81
2022-10-13T09:57:02.000Z,100199.38
2022-10-13T09:59:39.416Z,100201.78
2022-10-13T10:02:30.783Z,100200.88
2022-10-13T10:05:01.370Z,100200.44
2022-10-13T10:07:31.833Z,100198.44
2022-10-13T10:10:05.585Z,100204.75
2022-10-13T10:12:36.687Z,100200.44
2022-10-13T10:15:14.874Z,100187.75
2022-10-13T10:17:52.850Z,100184.66
2022-10-13T10:20:38.843Z,100191.97
2022-10-13T10:23:15.066Z,100191.69
2022-10-13T10:25:48.696Z,100188.81
2022-10-13T10:28:38.585Z,100190.81
2022-10-13T10:31:11.555Z,100188.69
2022-10-13T10:34:14.832Z,100192.41
2022-10-13T10:36:52.670Z,100194.53
2022-10-13T10:39:28.838Z,100196.06
2022-10-13T10:41:58.685Z,100193.38
2022-10-13T10:44:30.808Z,100194.06
2022-10-13T10:47:01.488Z,100196.44
2022-10-13T10:49:35.509Z,100201.59
2022-10-13T10:52:06.167Z,100191.56
2022-10-13T10:54:51.968Z,100192.28
2022-10-13T10:57:19.517Z,100191.13
2022-10-13T10:59:52.665Z,100195.78
2022-10-13T11:02:19.752Z,100187.44
2022-10-13T11:04:50.136Z,100196.94
2022-10-13T11:07:23.100Z,100196.88
2022-10-13T11:09:53.096Z,100188.22
2022-10-13T11:12:20.810Z,100197.81
2022-10-13T11:15:02.292Z,100197.09
2022-10-13T11:17:34.658Z,100196.72
2022-10-13T11:20:21.583Z,100196.72
2022-10-13T11:22:57.765Z,100198.53
2022-10-13T11:25:43.890Z,100193.41
2022-10-13T11:28:23.611Z,100199.44
2022-10-13T11:30:50.921Z,100198.53
2022-10-13T11:33:50.672Z,100147.84
2022-10-13T11:36:29.720Z,100187.47
2022-10-13T11:39:16.946Z,100190.31
2022-10-13T11:41:50.128Z,100186.19
2022-10-13T11:44:26.022Z,100185.13
2022-10-13T11:47:23.966Z,100187.34
2022-10-13T11:49:51.568Z,100187.94
2022-10-13T11:52:22.020Z,100191.16
2022-10-13T11:54:52.065Z,100188.19
2022-10-13T11:57:20.722Z,100191.19
2022-10-13T11:59:48.729Z,100179.09
2022-10-13T12:02:19.250Z,100182.56
2022-10-13T12:04:59.612Z,100182.59
2022-10-13T12:07:29.902Z,100183.47
2022-10-13T12:09:59.663Z,100176.50
2022-10-13T12:12:26.926Z,100178.41
2022-10-13T12:14:55.846Z,100177.75
2022-10-13T12:17:27.317Z,100172.84
2022-10-13T12:19:55.536Z,100175.59
2022-10-13T12:22:22.727Z,100172.03
2022-10-13T12:25:07.478Z,100168.47
2022-10-13T12:27:48.198Z,100161.56
2022-10-13T12:30:27.535Z,100168.03
2022-10-13T12:32:55.765Z,100162.75
2022-10-13T12:35:27.345Z,100157.34
2022-10-13T12:37:55.152Z,100161.81
2022-10-13T12:40:23.075Z,100163.47
2022-10-13T12:42:50.788Z,100159.88
2022-10-13T12:45:19.615Z,100164.31
2022-10-13T12:47:49.240Z,100158.91
2022-10-13T12:50:25.709Z,100159.88
2022-10-13T12:52:54.393Z,100168.63
2022-10-13T12:55:23.146Z,100166.72
2022-10-13T12:57:51.670Z,100163.78
2022-10-13T13:00:18.861Z,100163.34
2022-10-13T13:03:06.429Z,100156.00
2022-10-13T13:05:38.402Z,100164.44
2022-10-13T13:08:25.010Z,100163.31
2022-10-13T13:11:00.103Z,100163.94
2022-10-13T13:13:27.706Z,100162.75
2022-10-13T13:16:13.239Z,100157.81
2022-10-13T13:18:42.415Z,100171.16
2022-10-13T13:21:11.542Z,100168.75
2022-10-13T13:23:42.332Z,100166.78
2022-10-13T13:26:20.185Z,100173.28
2022-10-13T13:28:48.647Z,100161.38
2022-10-13T13:31:16.837Z,100174.91
2022-10-13T13:33:44.069Z,100166.88
2022-10-13T13:36:18.774Z,100166.16
2022-10-13T13:38:47.974Z,100175.13
2022-10-13T13:41:15.856Z,100178.19
2022-10-13T13:43:42.941Z,100179.03
2022-10-13T13:46:20.950Z,100177.16
2022-10-13T13:48:48.176Z,100177.84
2022-10-13T13:51:15.525Z,100182.78
2022-10-13T13:53:44.922Z,100183.22
2022-10-13T13:56:16.471Z,100176.72
2022-10-13T13:58:44.859Z,100182.47
2022-10-13T14:01:12.603Z,100190.94
2022-10-13T14:03:40.017Z,100188.53
2022-10-13T14:06:09.483Z,100188.69
2022-10-13T14:08:42.743Z,100183.34
2022-10-13T14:11:10.700Z,100184.97
2022-10-13T14:13:37.885Z,100189.25
2022-10-13T14:16:05.267Z,100189.91
2022-10-13T14:18:32.405Z,100191.06
2022-10-13T14:20:59.460Z,100197.53
2022-10-13T14:23:26.493Z,100197.94
2022-10-13T14:25:54.226Z,100195.78
2022-10-13T14:28:22.677Z,100196.34
2022-10-13T14:30:50.059Z,100201.13
2022-10-13T14:33:19.610Z,100206.66
2022-10-13T14:35:47.237Z,100213.13
2022-10-13T14:38:16.567Z,100210.91
2022-10-13T14:40:44.957Z,100216.44
2022-10-13T14:43:12.143Z,100210.44
2022-10-13T14:45:39.209Z,100215.00
2022-10-13T14:48:06.327Z,100207.16
2022-10-13T14:50:34.302Z,100212.53
2022-10-13T14:53:01.309Z,100213.50
2022-10-13T14:55:28.798Z,100103.69
2022-10-13T14:57:55.914Z,100219.53
2022-10-13T15:00:22.973Z,100221.22
2022-10-13T15:02:49.980Z,100221.19
2022-10-13T15:05:19.032Z,100228.09
2022-10-13T15:07:46.094Z,100227.13
2022-10-13T15:10:13.265Z,100222.78
2022-10-13T15:12:40.364Z,100223.75
2022-10-13T15:15:07.765Z,100243.13
2022-10-13T15:17:34.872Z,100234.50
2022-10-13T15:20:01.859Z,100234.56
2022-10-13T15:22:30.362Z,100238.16
2022-10-13T15:24:57.441Z,100240.03
2022-10-13T15:27:24.412Z,100231.38
2022-10-13T15:29:51.554Z,100235.59
2022-10-13T15:32:19.199Z,100237.94
2022-10-13T15:34:54.897Z,100238.59
2022-10-13T15:37:22.364Z,100234.41
2022-10-13T15:39:53.294Z,100235.34
2022-10-13T15:42:24.136Z,100237.91
2022-10-13T15:45:08.775Z,100236.84
2022-10-13T15:47:37.278Z,100233.31
2022-10-13T15:50:04.587Z,100242.94
2022-10-13T15:52:34.962Z,100235.03
2022-10-13T15:55:02.368Z,100235.97
2022-10-13T15:57:31.168Z,100237.84
2022-10-13T15:59:58.154Z,100230.94
2022-10-13T16:02:25.212Z,100241.75
2022-10-13T16:04:52.141Z,100246.44
2022-10-13T16:07:19.082Z,100241.34
2022-10-13T16:09:46.157Z,100241.34
2022-10-13T16:12:13.153Z,100250.00
2022-10-13T16:14:40.148Z,100252.59
2022-10-13T16:17:07.145Z,100245.59
2022-10-13T16:19:34.174Z,100244.75
2022-10-13T16:22:01.174Z,100246.56
2022-10-13T16:24:29.034Z,100241.47
2022-10-13T16:26:56.358Z,100243.38
2022-10-13T16:29:24.510Z,100236.38
2022-10-13T16:31:51.836Z,100236.22
2022-10-13T16:34:19.063Z,100240.47
2022-10-13T16:36:46.014Z,100235.34
2022-10-13T16:39:13.006Z,100245.25
2022-10-13T16:41:40.403Z,100245.59
2022-10-13T16:44:07.433Z,100254.75
2022-10-13T16:46:34.487Z,100241.84
2022-10-13T16:49:02.113Z,100246.28
2022-10-13T16:51:29.182Z,100249.88
2022-10-13T16:54:02.756Z,100251.69
2022-10-13T16:56:31.243Z,100249.94
2022-10-13T16:58:59.178Z,100251.56
2022-10-13T17:01:26.658Z,100247.81
2022-10-13T17:03:53.886Z,100248.34
2022-10-13T17:06:21.966Z,100249.84
2022-10-13T17:08:55.080Z,100255.88
2022-10-13T17:11:23.772Z,100246.28
2022-10-13T17:13:51.211Z,100251.34
2022-10-13T17:16:18.805Z,100246.84
2022-10-13T17:18:46.609Z,100249.47
2022-10-13T17:21:14.750Z,100246.84
2022-10-13T17:23:47.342Z,100245.03
2022-10-13T17:26:16.450Z,100251.09
2022-10-13T17:28:43.806Z,100248.44
2022-10-13T17:31:15.947Z,100250.13
2022-10-13T17:33:43.564Z,100251.06
2022-10-13T17:36:15.008Z,100255.34
2022-10-13T17:38:42.378Z,100253.69
2022-10-13T17:41:10.458Z,100246.75
2022-10-13T17:43:44.833Z,100247.66
2022-10-13T17:46:34.952Z,100251.25
2022-10-13T17:49:00.272Z,100249.19
2022-10-13T17:51:28.000Z,100257.72
2022-10-13T17:53:55.512Z,100258.69
2022-10-13T17:56:24.311Z,100256.28
2022-10-13T17:58:51.647Z,100251.25
2022-10-13T18:01:28.536Z,100255.13
2022-10-13T18:03:57.089Z,100250.94
2022-10-13T18:06:36.825Z,100263.25
2022-10-13T18:09:10.180Z,100258.00
2022-10-13T18:11:37.389Z,100258.84
2022-10-13T18:14:04.484Z,100255.44
2022-10-13T18:16:31.948Z,100259.19
2022-10-13T18:18:58.939Z,100259.53
2022-10-13T18:21:29.630Z,100259.78
2022-10-13T18:23:57.608Z,100261.69
2022-10-13T18:26:25.905Z,100259.16
2022-10-13T18:28:53.523Z,100259.34
2022-10-13T18:31:21.921Z,100259.47
2022-10-13T18:33:51.103Z,100259.41
2022-10-13T18:36:24.677Z,100268.94
2022-10-13T18:38:52.645Z,100260.69
2022-10-13T18:41:20.829Z,100268.19
2022-10-13T18:43:47.857Z,100269.66
2022-10-13T18:46:18.894Z,100268.72
2022-10-13T18:48:47.547Z,100270.31
2022-10-13T18:51:16.195Z,100276.38
2022-10-13T18:53:44.894Z,100265.81
2022-10-13T18:56:16.720Z,100266.72
2022-10-13T18:58:43.797Z,100275.34
2022-10-13T19:01:12.673Z,100270.03
2022-10-13T19:03:40.567Z,100268.28
2022-10-13T19:06:08.950Z,100266.50
2022-10-13T19:08:36.734Z,100272.59
2022-10-13T19:11:13.037Z,100271.66
2022-10-13T19:13:40.557Z,100275.13
2022-10-13T19:16:08.021Z,100264.53
2022-10-13T19:18:35.606Z,100274.13
2022-10-13T19:21:02.771Z,100260.81
2022-10-13T19:23:29.795Z,100262.56
2022-10-13T19:25:56.862Z,100268.59
2022-10-13T19:28:24.251Z,100262.53
2022-10-13T19:30:54.804Z,100268.66
2022-10-13T19:33:21.804Z,100264.25
2022-10-13T19:35:54.147Z,100263.41
2022-10-13T19:38:21.249Z,100262.53
2022-10-13T19:40:52.704Z,100261.59
2022-10-13T19:43:19.800Z,100262.53
2022-10-13T19:45:47.693Z,100269.44
2022-10-13T19:48:15.850Z,100267.66
2022-10-13T19:50:43.828Z,100269.44
2022-10-13T19:53:13.875Z,100275.69
2022-10-13T19:55:41.897Z,100271.38
2022-10-13T19:58:08.905Z,100267.84
2022-10-13T20:00:36.296Z,100272.31
2022-10-13T20:03:04.105Z,100275.00
2022-10-13T20:05:31.333Z,100278.63
2022-10-13T20:07:58.465Z,100278.63
2022-10-13T20:10:25.599Z,100275.16
2022-10-13T20:12:52.621Z,100276.88
2022-10-13T20:15:19.860Z,100272.59
2022-10-13T20:17:48.104Z,100275.25
2022-10-13T20:20:18.850Z,100278.72
2022-10-13T20:22:48.600Z,100274.31
2022-10-13T20:25:19.763Z,100275.25
2022-10-13T20:27:47.103Z,100271.75
2022-10-13T20:30:14.517Z,100281.47
2022-10-13T20:32:41.666Z,100283.25
2022-10-13T20:35:08.926Z,100280.59
2022-10-13T20:37:36.201Z,100279.72
2022-10-13T20:40:03.291Z,100278.75
2022-10-13T20:42:31.801Z,100278.72
2022-10-13T20:44:58.760Z,100281.34
2022-10-13T20:47:25.753Z,100284.91
2022-10-13T20:49:52.786Z,100281.38
2022-10-13T20:52:19.933Z,100285.81
2022-10-13T20:54:48.336Z,100288.44
2022-10-13T20:57:15.325Z,100284.94
2022-10-13T20:59:45.089Z,100188.78
2022-10-13T21:02:16.779Z,100295.47
2022-10-13T21:04:43.840Z,100293.69
2022-10-13T21:07:10.810Z,100298.91
2022-10-13T21:09:37.841Z,100293.69
2022-10-13T21:12:04.926Z,100293.69
2022-10-13T21:14:32.112Z,100291.06
2022-10-13T21:16:59.127Z,100297.19
2022-10-13T21:19:26.350Z,100188.97
2022-10-13T21:21:53.301Z,100293.69
2022-10-13T21:24:20.281Z,100297.19
2022-10-13T21:26:47.589Z,100292.84
2022-10-13T21:29:15.349Z,100294.56
2022-10-13T21:31:42.416Z,100298.00
2022-10-13T21:34:10.361Z,100295.28
2022-10-13T21:36:37.535Z,100305.75
2022-10-13T21:39:05.220Z,100304.06
2022-10-13T21:41:33.024Z,100303.31
2022-10-13T21:44:00.147Z,100308.66
2022-10-13T21:46:31.751Z,100295.59
2022-10-13T21:48:59.804Z,100295.66
2022-10-13T21:51:29.686Z,100305.34
2022-10-13T21:54:00.518Z,100300.94
2022-10-13T21:56:30.727Z,100296.75
2022-10-13T21:58:59.362Z,100303.88
2022-10-13T22:01:26.487Z,100308.28
2022-10-13T22:03:55.351Z,100308.25
2022-10-13T22:06:26.095Z,100303.81
2022-10-13T22:08:54.213Z,100305.66
2022-10-13T22:11:22.233Z,100307.53
2022-10-13T22:13:49.395Z,100307.66
2022-10-13T22:16:18.579Z,100307.69
2022-10-13T22:18:45.744Z,100310.34
2022-10-13T22:21:17.056Z,100310.41
2022-10-13T22:23:45.064Z,100308.75
2022-10-13T22:26:12.286Z,100307.09
2022-10-13T22:28:39.897Z,100308.03
2022-10-13T22:31:11.774Z,100311.50
2022-10-13T22:33:40.203Z,100308.03
2022-10-13T22:36:17.575Z,100311.50
2022-10-13T22:38:44.983Z,100317.69
2022-10-13T22:41:13.317Z,100317.69
2022-10-13T22:43:40.493Z,100314.13
2022-10-13T22:46:17.458Z,100315.00
2022-10-13T22:48:44.896Z,100314.91
2022-10-13T22:51:15.145Z,100311.34
2022-10-13T22:53:42.340Z,100313.06
2022-10-13T22:56:11.710Z,100317.53
2022-10-13T22:58:38.713Z,100318.41
2022-10-13T23:01:06.965Z,100315.78
2022-10-13T23:03:34.493Z,100323.72
2022-10-13T23:06:02.285Z,100323.75
2022-10-13T23:08:29.238Z,100327.28
2022-10-13T23:10:56.256Z,100322.91
2022-10-13T23:13:23.257Z,100326.44
2022-10-13T23:15:50.593Z,100320.34
2022-10-13T23:18:17.774Z,100316.84
2022-10-13T23:20:45.100Z,100200.75
2022-10-13T23:23:14.436Z,100330.00
2022-10-13T23:25:41.548Z,100327.41
2022-10-13T23:28:08.529Z,100316.06
2022-10-13T23:30:35.460Z,100325.75
2022-10-13T23:33:02.411Z,100329.25
2022-10-13T23:35:29.527Z,100330.16
2022-10-13T23:37:56.505Z,100324.03
2022-10-13T23:40:23.489Z,100326.69
2022-10-13T23:42:50.467Z,100330.25
2022-10-13T23:45:17.476Z,100331.09
2022-10-13T23:47:44.960Z,100327.63
2022-10-13T23:50:11.976Z,100325.13
2022-10-13T23:52:38.913Z,100328.53
2022-10-13T23:55:06.131Z,100332.88
2022-10-13T23:57:33.071Z,100330.25
